sensor_id;sensor_type;location;lat;lon;timestamp;P1;durP1;ratioP1;P2;durP2;ratioP2
26574;SDS011;67165;50.256;10.978;2024-02-14T00:00:05;20.67;;;12.18;;
26574;SDS011;67165;50.256;10.978;2024-02-14T00:02:35;21.67;;;12.40;;
26574;SDS011;67165;50.256;10.978;2024-02-14T00:05:02;19.63;;;11.63;;
26574;SDS011;67165;50.256;10.978;2024-02-14T00:07:28;18.23;;;12.00;;
26574;SDS011;67165;50.256;10.978;2024-02-14T00:09:54;21.35;;;13.15;;
26574;SDS011;67165;50.256;10.978;2024-02-14T00:12:20;19.25;;;12.07;;
26574;SDS011;67165;50.256;10.978;2024-02-14T00:14:45;27.55;;;14.80;;
26574;SDS011;67165;50.256;10.978;2024-02-14T00:17:11;24.48;;;14.85;;
26574;SDS011;67165;50.256;10.978;2024-02-14T00:19:37;26.33;;;14.82;;
26574;SDS011;67165;50.256;10.978;2024-02-14T00:22:03;24.88;;;14.65;;
26574;SDS011;67165;50.256;10.978;2024-02-14T00:24:29;24.25;;;14.30;;
26574;SDS011;67165;50.256;10.978;2024-02-14T00:26:55;22.70;;;13.00;;
26574;SDS011;67165;50.256;10.978;2024-02-14T00:29:21;23.75;;;14.75;;
26574;SDS011;67165;50.256;10.978;2024-02-14T00:31:49;23.08;;;12.85;;
26574;SDS011;67165;50.256;10.978;2024-02-14T00:34:15;22.58;;;15.13;;
26574;SDS011;67165;50.256;10.978;2024-02-14T00:36:41;22.98;;;13.85;;
26574;SDS011;67165;50.256;10.978;2024-02-14T00:39:06;21.50;;;12.18;;
26574;SDS011;67165;50.256;10.978;2024-02-14T00:41:34;22.35;;;12.48;;
26574;SDS011;67165;50.256;10.978;2024-02-14T00:44:00;25.45;;;15.25;;
26574;SDS011;67165;50.256;10.978;2024-02-14T00:46:28;19.70;;;12.95;;
26574;SDS011;67165;50.256;10.978;2024-02-14T00:48:54;20.52;;;12.30;;
26574;SDS011;67165;50.256;10.978;2024-02-14T00:51:21;24.50;;;13.13;;
26574;SDS011;67165;50.256;10.978;2024-02-14T00:53:47;20.65;;;13.00;;
26574;SDS011;67165;50.256;10.978;2024-02-14T00:56:12;18.63;;;12.27;;
26574;SDS011;67165;50.256;10.978;2024-02-14T00:58:38;23.83;;;14.40;;
26574;SDS011;67165;50.256;10.978;2024-02-14T01:01:04;20.77;;;13.45;;
26574;SDS011;67165;50.256;10.978;2024-02-14T01:03:30;20.83;;;13.50;;
26574;SDS011;67165;50.256;10.978;2024-02-14T01:05:56;24.08;;;14.40;;
26574;SDS011;67165;50.256;10.978;2024-02-14T01:08:22;27.08;;;15.32;;
26574;SDS011;67165;50.256;10.978;2024-02-14T01:10:48;26.35;;;14.70;;
26574;SDS011;67165;50.256;10.978;2024-02-14T01:13:17;26.77;;;15.60;;
26574;SDS011;67165;50.256;10.978;2024-02-14T01:15:43;23.38;;;14.23;;
26574;SDS011;67165;50.256;10.978;2024-02-14T01:18:09;22.92;;;14.48;;
26574;SDS011;67165;50.256;10.978;2024-02-14T01:20:35;22.38;;;13.32;;
26574;SDS011;67165;50.256;10.978;2024-02-14T01:23:02;20.95;;;12.88;;
26574;SDS011;67165;50.256;10.978;2024-02-14T01:25:28;19.77;;;12.40;;
26574;SDS011;67165;50.256;10.978;2024-02-14T01:27:54;25.58;;;14.35;;
26574;SDS011;67165;50.256;10.978;2024-02-14T01:30:21;20.67;;;13.02;;
26574;SDS011;67165;50.256;10.978;2024-02-14T01:32:47;24.58;;;14.98;;
26574;SDS011;67165;50.256;10.978;2024-02-14T01:35:12;21.77;;;13.63;;
26574;SDS011;67165;50.256;10.978;2024-02-14T01:37:38;24.17;;;13.50;;
26574;SDS011;67165;50.256;10.978;2024-02-14T01:40:05;23.55;;;14.13;;
26574;SDS011;67165;50.256;10.978;2024-02-14T01:42:32;20.75;;;13.38;;
26574;SDS011;67165;50.256;10.978;2024-02-14T01:44:58;23.83;;;13.80;;
26574;SDS011;67165;50.256;10.978;2024-02-14T01:47:24;26.23;;;15.40;;
26574;SDS011;67165;50.256;10.978;2024-02-14T01:49:50;23.70;;;15.10;;
26574;SDS011;67165;50.256;10.978;2024-02-14T01:52:16;24.80;;;15.27;;
26574;SDS011;67165;50.256;10.978;2024-02-14T01:54:42;24.90;;;14.23;;
26574;SDS011;67165;50.256;10.978;2024-02-14T01:57:08;22.27;;;14.23;;
26574;SDS011;67165;50.256;10.978;2024-02-14T01:59:36;25.10;;;14.40;;
26574;SDS011;67165;50.256;10.978;2024-02-14T02:02:02;27.50;;;14.48;;
26574;SDS011;67165;50.256;10.978;2024-02-14T02:04:32;23.13;;;13.65;;
26574;SDS011;67165;50.256;10.978;2024-02-14T02:06:58;21.05;;;13.63;;
26574;SDS011;67165;50.256;10.978;2024-02-14T02:09:24;20.25;;;12.73;;
26574;SDS011;67165;50.256;10.978;2024-02-14T02:11:51;20.23;;;13.63;;
26574;SDS011;67165;50.256;10.978;2024-02-14T02:14:21;20.20;;;12.98;;
26574;SDS011;67165;50.256;10.978;2024-02-14T02:16:47;23.10;;;13.07;;
26574;SDS011;67165;50.256;10.978;2024-02-14T02:19:14;21.88;;;10.93;;
26574;SDS011;67165;50.256;10.978;2024-02-14T02:21:43;18.70;;;10.43;;
26574;SDS011;67165;50.256;10.978;2024-02-14T02:24:11;18.05;;;11.05;;
26574;SDS011;67165;50.256;10.978;2024-02-14T02:26:37;18.45;;;9.48;;
26574;SDS011;67165;50.256;10.978;2024-02-14T02:29:03;15.90;;;9.63;;
26574;SDS011;67165;50.256;10.978;2024-02-14T02:31:30;16.90;;;8.88;;
26574;SDS011;67165;50.256;10.978;2024-02-14T02:33:56;12.43;;;8.13;;
26574;SDS011;67165;50.256;10.978;2024-02-14T02:36:22;14.95;;;8.52;;
26574;SDS011;67165;50.256;10.978;2024-02-14T02:38:49;15.70;;;8.63;;
26574;SDS011;67165;50.256;10.978;2024-02-14T02:41:15;14.23;;;8.25;;
26574;SDS011;67165;50.256;10.978;2024-02-14T02:43:41;15.18;;;8.55;;
26574;SDS011;67165;50.256;10.978;2024-02-14T02:46:10;12.68;;;7.85;;
26574;SDS011;67165;50.256;10.978;2024-02-14T02:48:36;15.40;;;8.25;;
26574;SDS011;67165;50.256;10.978;2024-02-14T02:51:02;13.35;;;7.85;;
26574;SDS011;67165;50.256;10.978;2024-02-14T02:53:28;16.33;;;7.88;;
26574;SDS011;67165;50.256;10.978;2024-02-14T02:55:54;12.88;;;7.80;;
26574;SDS011;67165;50.256;10.978;2024-02-14T02:58:22;12.85;;;7.47;;
26574;SDS011;67165;50.256;10.978;2024-02-14T03:00:48;18.02;;;7.50;;
26574;SDS011;67165;50.256;10.978;2024-02-14T03:03:18;16.65;;;7.70;;
26574;SDS011;67165;50.256;10.978;2024-02-14T03:05:44;13.57;;;7.40;;
26574;SDS011;67165;50.256;10.978;2024-02-14T03:08:10;15.55;;;7.30;;
26574;SDS011;67165;50.256;10.978;2024-02-14T03:10:40;13.85;;;7.90;;
26574;SDS011;67165;50.256;10.978;2024-02-14T03:13:06;11.32;;;7.20;;
26574;SDS011;67165;50.256;10.978;2024-02-14T03:15:37;10.73;;;7.28;;
26574;SDS011;67165;50.256;10.978;2024-02-14T03:18:03;12.32;;;7.68;;
26574;SDS011;67165;50.256;10.978;2024-02-14T03:20:33;10.93;;;7.00;;
26574;SDS011;67165;50.256;10.978;2024-02-14T03:22:58;10.15;;;6.80;;
26574;SDS011;67165;50.256;10.978;2024-02-14T03:25:24;10.90;;;6.63;;
26574;SDS011;67165;50.256;10.978;2024-02-14T03:27:51;12.38;;;6.97;;
26574;SDS011;67165;50.256;10.978;2024-02-14T03:30:21;12.60;;;6.70;;
26574;SDS011;67165;50.256;10.978;2024-02-14T03:32:47;13.55;;;7.28;;
26574;SDS011;67165;50.256;10.978;2024-02-14T03:35:17;14.90;;;6.25;;
26574;SDS011;67165;50.256;10.978;2024-02-14T03:37:46;11.02;;;6.43;;
26574;SDS011;67165;50.256;10.978;2024-02-14T03:40:13;11.45;;;6.68;;
26574;SDS011;67165;50.256;10.978;2024-02-14T03:42:39;9.98;;;6.15;;
26574;SDS011;67165;50.256;10.978;2024-02-14T03:45:05;10.05;;;6.20;;
26574;SDS011;67165;50.256;10.978;2024-02-14T03:47:35;10.88;;;5.78;;
26574;SDS011;67165;50.256;10.978;2024-02-14T03:50:04;13.82;;;6.07;;
26574;SDS011;67165;50.256;10.978;2024-02-14T03:52:32;10.55;;;5.88;;
26574;SDS011;67165;50.256;10.978;2024-02-14T03:54:58;10.73;;;6.15;;
26574;SDS011;67165;50.256;10.978;2024-02-14T03:57:24;13.77;;;6.38;;
26574;SDS011;67165;50.256;10.978;2024-02-14T03:59:53;10.30;;;5.63;;
26574;SDS011;67165;50.256;10.978;2024-02-14T04:02:20;11.73;;;6.18;;
26574;SDS011;67165;50.256;10.978;2024-02-14T04:04:48;13.75;;;6.18;;
26574;SDS011;67165;50.256;10.978;2024-02-14T04:07:14;10.90;;;5.85;;
26574;SDS011;67165;50.256;10.978;2024-02-14T04:09:40;10.30;;;6.13;;
26574;SDS011;67165;50.256;10.978;2024-02-14T04:12:06;7.85;;;5.20;;
26574;SDS011;67165;50.256;10.978;2024-02-14T04:14:32;9.55;;;5.65;;
26574;SDS011;67165;50.256;10.978;2024-02-14T04:16:58;11.10;;;6.15;;
26574;SDS011;67165;50.256;10.978;2024-02-14T04:19:23;9.38;;;5.90;;
26574;SDS011;67165;50.256;10.978;2024-02-14T04:21:49;9.85;;;6.07;;
26574;SDS011;67165;50.256;10.978;2024-02-14T04:24:15;10.27;;;5.72;;
26574;SDS011;67165;50.256;10.978;2024-02-14T04:26:41;11.20;;;5.93;;
26574;SDS011;67165;50.256;10.978;2024-02-14T04:29:10;8.40;;;5.80;;
26574;SDS011;67165;50.256;10.978;2024-02-14T04:31:36;11.98;;;5.97;;
26574;SDS011;67165;50.256;10.978;2024-02-14T04:34:02;14.05;;;6.15;;
26574;SDS011;67165;50.256;10.978;2024-02-14T04:36:28;13.05;;;6.30;;
26574;SDS011;67165;50.256;10.978;2024-02-14T04:38:56;11.93;;;6.40;;
26574;SDS011;67165;50.256;10.978;2024-02-14T04:41:22;11.25;;;5.70;;
26574;SDS011;67165;50.256;10.978;2024-02-14T04:43:48;12.20;;;5.95;;
26574;SDS011;67165;50.256;10.978;2024-02-14T04:46:14;11.25;;;6.18;;
26574;SDS011;67165;50.256;10.978;2024-02-14T04:48:39;8.95;;;5.55;;
26574;SDS011;67165;50.256;10.978;2024-02-14T04:51:05;10.48;;;5.80;;
26574;SDS011;67165;50.256;10.978;2024-02-14T04:53:31;9.18;;;5.68;;
26574;SDS011;67165;50.256;10.978;2024-02-14T04:55:57;11.70;;;6.22;;
26574;SDS011;67165;50.256;10.978;2024-02-14T04:58:23;8.70;;;5.60;;
26574;SDS011;67165;50.256;10.978;2024-02-14T05:00:49;15.27;;;6.45;;
26574;SDS011;67165;50.256;10.978;2024-02-14T05:03:15;10.05;;;5.80;;
26574;SDS011;67165;50.256;10.978;2024-02-14T05:05:41;13.40;;;6.30;;
26574;SDS011;67165;50.256;10.978;2024-02-14T05:08:07;10.15;;;6.65;;
26574;SDS011;67165;50.256;10.978;2024-02-14T05:10:32;13.75;;;6.05;;
26574;SDS011;67165;50.256;10.978;2024-02-14T05:12:58;13.98;;;6.10;;
26574;SDS011;67165;50.256;10.978;2024-02-14T05:15:24;13.52;;;6.00;;
26574;SDS011;67165;50.256;10.978;2024-02-14T05:17:51;12.35;;;6.05;;
26574;SDS011;67165;50.256;10.978;2024-02-14T05:20:17;10.85;;;5.97;;
26574;SDS011;67165;50.256;10.978;2024-02-14T05:22:43;12.07;;;5.97;;
26574;SDS011;67165;50.256;10.978;2024-02-14T05:25:09;12.13;;;5.65;;
26574;SDS011;67165;50.256;10.978;2024-02-14T05:27:35;10.38;;;5.93;;
26574;SDS011;67165;50.256;10.978;2024-02-14T05:30:04;12.30;;;5.82;;
26574;SDS011;67165;50.256;10.978;2024-02-14T05:32:34;13.30;;;5.88;;
26574;SDS011;67165;50.256;10.978;2024-02-14T05:35:00;13.00;;;5.13;;
26574;SDS011;67165;50.256;10.978;2024-02-14T05:37:26;10.68;;;5.57;;
26574;SDS011;67165;50.256;10.978;2024-02-14T05:39:53;10.40;;;6.10;;
26574;SDS011;67165;50.256;10.978;2024-02-14T05:42:19;12.70;;;5.82;;
26574;SDS011;67165;50.256;10.978;2024-02-14T05:44:45;11.75;;;6.70;;
26574;SDS011;67165;50.256;10.978;2024-02-14T05:47:11;12.55;;;6.30;;
26574;SDS011;67165;50.256;10.978;2024-02-14T05:49:38;12.07;;;6.20;;
26574;SDS011;67165;50.256;10.978;2024-02-14T05:52:05;11.57;;;6.18;;
26574;SDS011;67165;50.256;10.978;2024-02-14T05:54:31;12.98;;;6.03;;
26574;SDS011;67165;50.256;10.978;2024-02-14T05:56:57;11.77;;;6.38;;
26574;SDS011;67165;50.256;10.978;2024-02-14T05:59:23;9.65;;;5.30;;
26574;SDS011;67165;50.256;10.978;2024-02-14T06:01:48;9.32;;;5.47;;
26574;SDS011;67165;50.256;10.978;2024-02-14T06:04:14;8.82;;;5.22;;
26574;SDS011;67165;50.256;10.978;2024-02-14T06:06:40;10.50;;;5.30;;
26574;SDS011;67165;50.256;10.978;2024-02-14T06:09:06;10.98;;;5.85;;
26574;SDS011;67165;50.256;10.978;2024-02-14T06:11:35;8.25;;;5.25;;
26574;SDS011;67165;50.256;10.978;2024-02-14T06:14:04;11.93;;;5.82;;
26574;SDS011;67165;50.256;10.978;2024-02-14T06:16:33;11.10;;;5.40;;
26574;SDS011;67165;50.256;10.978;2024-02-14T06:19:00;11.05;;;5.75;;
26574;SDS011;67165;50.256;10.978;2024-02-14T06:21:26;13.07;;;6.80;;
26574;SDS011;67165;50.256;10.978;2024-02-14T06:23:52;12.57;;;6.18;;
26574;SDS011;67165;50.256;10.978;2024-02-14T06:26:18;11.00;;;6.22;;
26574;SDS011;67165;50.256;10.978;2024-02-14T06:28:44;11.63;;;6.78;;
26574;SDS011;67165;50.256;10.978;2024-02-14T06:31:10;11.43;;;5.93;;
26574;SDS011;67165;50.256;10.978;2024-02-14T06:33:36;11.32;;;7.03;;
26574;SDS011;67165;50.256;10.978;2024-02-14T06:36:02;21.52;;;9.40;;
26574;SDS011;67165;50.256;10.978;2024-02-14T06:38:28;13.10;;;7.47;;
26574;SDS011;67165;50.256;10.978;2024-02-14T06:40:56;16.58;;;8.55;;
26574;SDS011;67165;50.256;10.978;2024-02-14T06:43:22;17.23;;;9.73;;
26574;SDS011;67165;50.256;10.978;2024-02-14T06:45:47;18.27;;;8.77;;
26574;SDS011;67165;50.256;10.978;2024-02-14T06:48:13;14.77;;;8.38;;
26574;SDS011;67165;50.256;10.978;2024-02-14T06:50:39;21.30;;;10.38;;
26574;SDS011;67165;50.256;10.978;2024-02-14T06:53:05;16.25;;;8.10;;
26574;SDS011;67165;50.256;10.978;2024-02-14T06:55:31;15.57;;;7.95;;
26574;SDS011;67165;50.256;10.978;2024-02-14T06:57:57;18.10;;;8.88;;
26574;SDS011;67165;50.256;10.978;2024-02-14T07:00:24;14.23;;;7.20;;
26574;SDS011;67165;50.256;10.978;2024-02-14T07:02:50;25.25;;;12.02;;
26574;SDS011;67165;50.256;10.978;2024-02-14T07:05:16;17.80;;;8.75;;
26574;SDS011;67165;50.256;10.978;2024-02-14T07:07:42;19.42;;;8.95;;
26574;SDS011;67165;50.256;10.978;2024-02-14T07:10:08;19.75;;;8.60;;
26574;SDS011;67165;50.256;10.978;2024-02-14T07:12:34;19.88;;;9.65;;
26574;SDS011;67165;50.256;10.978;2024-02-14T07:15:03;17.83;;;7.72;;
26574;SDS011;67165;50.256;10.978;2024-02-14T07:17:30;21.48;;;10.00;;
26574;SDS011;67165;50.256;10.978;2024-02-14T07:19:55;25.83;;;11.23;;
26574;SDS011;67165;50.256;10.978;2024-02-14T07:22:21;19.92;;;9.60;;
26574;SDS011;67165;50.256;10.978;2024-02-14T07:24:47;19.42;;;9.18;;
26574;SDS011;67165;50.256;10.978;2024-02-14T07:27:14;20.55;;;10.63;;
26574;SDS011;67165;50.256;10.978;2024-02-14T07:29:41;20.35;;;10.07;;
26574;SDS011;67165;50.256;10.978;2024-02-14T07:32:07;18.17;;;8.80;;
26574;SDS011;67165;50.256;10.978;2024-02-14T07:34:33;13.50;;;6.47;;
26574;SDS011;67165;50.256;10.978;2024-02-14T07:36:58;12.35;;;6.40;;
26574;SDS011;67165;50.256;10.978;2024-02-14T07:39:24;10.73;;;6.60;;
26574;SDS011;67165;50.256;10.978;2024-02-14T07:41:50;20.98;;;7.32;;
26574;SDS011;67165;50.256;10.978;2024-02-14T07:44:16;21.63;;;9.63;;
26574;SDS011;67165;50.256;10.978;2024-02-14T07:46:42;15.82;;;7.90;;
26574;SDS011;67165;50.256;10.978;2024-02-14T07:49:08;15.77;;;7.53;;
26574;SDS011;67165;50.256;10.978;2024-02-14T07:51:35;14.00;;;6.95;;
26574;SDS011;67165;50.256;10.978;2024-02-14T07:54:04;15.50;;;6.68;;
26574;SDS011;67165;50.256;10.978;2024-02-14T07:56:30;10.40;;;6.30;;
26574;SDS011;67165;50.256;10.978;2024-02-14T07:58:56;12.02;;;6.20;;
26574;SDS011;67165;50.256;10.978;2024-02-14T08:01:23;12.80;;;6.30;;
26574;SDS011;67165;50.256;10.978;2024-02-14T08:03:48;11.60;;;6.78;;
26574;SDS011;67165;50.256;10.978;2024-02-14T08:06:14;16.23;;;6.22;;
26574;SDS011;67165;50.256;10.978;2024-02-14T08:08:40;10.00;;;5.90;;
26574;SDS011;67165;50.256;10.978;2024-02-14T08:11:06;12.10;;;6.13;;
26574;SDS011;67165;50.256;10.978;2024-02-14T08:13:32;12.38;;;6.07;;
26574;SDS011;67165;50.256;10.978;2024-02-14T08:15:59;13.95;;;6.63;;
26574;SDS011;67165;50.256;10.978;2024-02-14T08:18:25;12.55;;;6.20;;
26574;SDS011;67165;50.256;10.978;2024-02-14T08:20:52;14.43;;;6.28;;
26574;SDS011;67165;50.256;10.978;2024-02-14T08:23:18;11.48;;;6.60;;
26574;SDS011;67165;50.256;10.978;2024-02-14T08:25:45;8.85;;;5.43;;
26574;SDS011;67165;50.256;10.978;2024-02-14T08:28:11;10.93;;;6.05;;
26574;SDS011;67165;50.256;10.978;2024-02-14T08:30:37;14.48;;;6.03;;
26574;SDS011;67165;50.256;10.978;2024-02-14T08:33:03;13.68;;;6.05;;
26574;SDS011;67165;50.256;10.978;2024-02-14T08:35:29;12.00;;;5.90;;
26574;SDS011;67165;50.256;10.978;2024-02-14T08:37:55;19.52;;;6.10;;
26574;SDS011;67165;50.256;10.978;2024-02-14T08:40:21;14.38;;;6.53;;
26574;SDS011;67165;50.256;10.978;2024-02-14T08:42:46;16.40;;;6.22;;
26574;SDS011;67165;50.256;10.978;2024-02-14T08:45:12;14.20;;;6.32;;
26574;SDS011;67165;50.256;10.978;2024-02-14T08:47:38;11.52;;;5.75;;
26574;SDS011;67165;50.256;10.978;2024-02-14T08:50:04;10.85;;;6.05;;
26574;SDS011;67165;50.256;10.978;2024-02-14T08:52:30;13.27;;;5.68;;
26574;SDS011;67165;50.256;10.978;2024-02-14T08:54:57;12.57;;;6.03;;
26574;SDS011;67165;50.256;10.978;2024-02-14T08:57:23;13.07;;;6.35;;
26574;SDS011;67165;50.256;10.978;2024-02-14T08:59:49;13.82;;;6.78;;
26574;SDS011;67165;50.256;10.978;2024-02-14T09:02:15;12.27;;;6.60;;
26574;SDS011;67165;50.256;10.978;2024-02-14T09:04:42;12.15;;;6.93;;
26574;SDS011;67165;50.256;10.978;2024-02-14T09:07:08;10.73;;;6.50;;
26574;SDS011;67165;50.256;10.978;2024-02-14T09:09:35;14.75;;;6.40;;
26574;SDS011;67165;50.256;10.978;2024-02-14T09:12:03;11.27;;;6.45;;
26574;SDS011;67165;50.256;10.978;2024-02-14T09:14:29;13.45;;;6.45;;
26574;SDS011;67165;50.256;10.978;2024-02-14T09:16:55;17.25;;;6.43;;
26574;SDS011;67165;50.256;10.978;2024-02-14T09:19:21;16.05;;;6.53;;
26574;SDS011;67165;50.256;10.978;2024-02-14T09:21:47;13.25;;;6.18;;
26574;SDS011;67165;50.256;10.978;2024-02-14T09:24:13;12.32;;;5.97;;
26574;SDS011;67165;50.256;10.978;2024-02-14T09:26:39;9.23;;;5.63;;
26574;SDS011;67165;50.256;10.978;2024-02-14T09:29:05;10.25;;;5.38;;
26574;SDS011;67165;50.256;10.978;2024-02-14T09:31:30;12.82;;;5.68;;
26574;SDS011;67165;50.256;10.978;2024-02-14T09:33:56;7.85;;;5.35;;
26574;SDS011;67165;50.256;10.978;2024-02-14T09:36:23;8.57;;;5.07;;
26574;SDS011;67165;50.256;10.978;2024-02-14T09:38:50;13.27;;;5.80;;
26574;SDS011;67165;50.256;10.978;2024-02-14T09:41:36;9.25;;;5.63;;
26574;SDS011;67165;50.256;10.978;2024-02-14T09:44:05;11.43;;;5.40;;
26574;SDS011;67165;50.256;10.978;2024-02-14T09:46:32;10.35;;;5.38;;
26574;SDS011;67165;50.256;10.978;2024-02-14T09:49:02;11.82;;;5.60;;
26574;SDS011;67165;50.256;10.978;2024-02-14T09:51:29;11.63;;;5.70;;
26574;SDS011;67165;50.256;10.978;2024-02-14T09:53:55;9.85;;;4.97;;
26574;SDS011;67165;50.256;10.978;2024-02-14T09:56:22;11.40;;;5.40;;
26574;SDS011;67165;50.256;10.978;2024-02-14T09:58:49;11.07;;;5.65;;
26574;SDS011;67165;50.256;10.978;2024-02-14T10:01:21;11.73;;;5.60;;
26574;SDS011;67165;50.256;10.978;2024-02-14T10:03:50;14.73;;;5.93;;
26574;SDS011;67165;50.256;10.978;2024-02-14T10:06:20;11.90;;;5.47;;
26574;SDS011;67165;50.256;10.978;2024-02-14T10:08:46;8.63;;;5.47;;
26574;SDS011;67165;50.256;10.978;2024-02-14T10:11:13;10.38;;;5.97;;
26574;SDS011;67165;50.256;10.978;2024-02-14T10:13:40;18.10;;;5.85;;
26574;SDS011;67165;50.256;10.978;2024-02-14T10:16:06;10.98;;;5.78;;
26574;SDS011;67165;50.256;10.978;2024-02-14T10:18:33;14.68;;;5.55;;
26574;SDS011;67165;50.256;10.978;2024-02-14T10:20:59;17.17;;;5.95;;
26574;SDS011;67165;50.256;10.978;2024-02-14T10:23:26;11.32;;;5.40;;
26574;SDS011;67165;50.256;10.978;2024-02-14T10:25:53;11.75;;;6.00;;
26574;SDS011;67165;50.256;10.978;2024-02-14T10:28:21;11.50;;;5.47;;
26574;SDS011;67165;50.256;10.978;2024-02-14T10:30:47;12.57;;;5.97;;
26574;SDS011;67165;50.256;10.978;2024-02-14T10:33:17;14.45;;;6.57;;
26574;SDS011;67165;50.256;10.978;2024-02-14T10:35:44;13.80;;;6.00;;
26574;SDS011;67165;50.256;10.978;2024-02-14T10:38:11;12.50;;;5.65;;
26574;SDS011;67165;50.256;10.978;2024-02-14T10:40:37;14.18;;;5.70;;
26574;SDS011;67165;50.256;10.978;2024-02-14T10:43:07;11.63;;;5.70;;
26574;SDS011;67165;50.256;10.978;2024-02-14T10:45:36;11.45;;;5.88;;
26574;SDS011;67165;50.256;10.978;2024-02-14T10:48:02;14.02;;;6.03;;
26574;SDS011;67165;50.256;10.978;2024-02-14T10:50:32;11.05;;;5.72;;
26574;SDS011;67165;50.256;10.978;2024-02-14T10:53:00;11.02;;;5.30;;
26574;SDS011;67165;50.256;10.978;2024-02-14T10:55:30;9.45;;;5.40;;
26574;SDS011;67165;50.256;10.978;2024-02-14T10:57:58;9.88;;;5.45;;
26574;SDS011;67165;50.256;10.978;2024-02-14T11:00:24;10.52;;;5.63;;
26574;SDS011;67165;50.256;10.978;2024-02-14T11:02:50;13.60;;;5.70;;
26574;SDS011;67165;50.256;10.978;2024-02-14T11:05:18;11.27;;;5.85;;
26574;SDS011;67165;50.256;10.978;2024-02-14T11:07:49;16.33;;;5.57;;
26574;SDS011;67165;50.256;10.978;2024-02-14T11:10:18;10.52;;;5.68;;
26574;SDS011;67165;50.256;10.978;2024-02-14T11:12:46;9.85;;;5.50;;
26574;SDS011;67165;50.256;10.978;2024-02-14T11:15:23;13.43;;;6.18;;
26574;SDS011;67165;50.256;10.978;2024-02-14T11:17:50;16.30;;;6.20;;
26574;SDS011;67165;50.256;10.978;2024-02-14T11:20:19;13.98;;;5.60;;
26574;SDS011;67165;50.256;10.978;2024-02-14T11:23:04;11.23;;;5.65;;
26574;SDS011;67165;50.256;10.978;2024-02-14T11:25:34;15.25;;;5.35;;
26574;SDS011;67165;50.256;10.978;2024-02-14T11:28:13;10.23;;;5.20;;
26574;SDS011;67165;50.256;10.978;2024-02-14T11:30:40;12.30;;;5.80;;
26574;SDS011;67165;50.256;10.978;2024-02-14T11:35:44;10.43;;;5.10;;
26574;SDS011;67165;50.256;10.978;2024-02-14T11:38:20;11.70;;;5.88;;
26574;SDS011;67165;50.256;10.978;2024-02-14T11:40:54;9.23;;;5.32;;
26574;SDS011;67165;50.256;10.978;2024-02-14T11:43:23;12.55;;;5.63;;
26574;SDS011;67165;50.256;10.978;2024-02-14T11:45:49;9.85;;;5.20;;
26574;SDS011;67165;50.256;10.978;2024-02-14T11:48:17;13.13;;;5.75;;
26574;SDS011;67165;50.256;10.978;2024-02-14T11:50:48;8.93;;;4.60;;
26574;SDS011;67165;50.256;10.978;2024-02-14T11:53:14;9.27;;;4.85;;
26574;SDS011;67165;50.256;10.978;2024-02-14T11:55:44;11.02;;;5.50;;
26574;SDS011;67165;50.256;10.978;2024-02-14T11:58:14;13.50;;;5.38;;
26574;SDS011;67165;50.256;10.978;2024-02-14T12:00:41;12.45;;;4.88;;
26574;SDS011;67165;50.256;10.978;2024-02-14T12:03:18;8.20;;;4.63;;
26574;SDS011;67165;50.256;10.978;2024-02-14T12:05:46;8.30;;;4.00;;
26574;SDS011;67165;50.256;10.978;2024-02-14T12:08:13;7.43;;;3.90;;
26574;SDS011;67165;50.256;10.978;2024-02-14T12:10:42;9.48;;;3.47;;
26574;SDS011;67165;50.256;10.978;2024-02-14T12:13:08;8.40;;;3.60;;
26574;SDS011;67165;50.256;10.978;2024-02-14T12:15:40;8.02;;;3.35;;
26574;SDS011;67165;50.256;10.978;2024-02-14T12:18:10;10.88;;;3.00;;
26574;SDS011;67165;50.256;10.978;2024-02-14T12:20:39;9.02;;;3.53;;
26574;SDS011;67165;50.256;10.978;2024-02-14T12:23:13;7.53;;;3.25;;
26574;SDS011;67165;50.256;10.978;2024-02-14T12:25:42;8.52;;;3.35;;
26574;SDS011;67165;50.256;10.978;2024-02-14T12:28:08;6.28;;;3.25;;
26574;SDS011;67165;50.256;10.978;2024-02-14T12:30:48;6.88;;;3.38;;
26574;SDS011;67165;50.256;10.978;2024-02-14T12:33:15;6.22;;;3.50;;
26574;SDS011;67165;50.256;10.978;2024-02-14T12:35:42;10.75;;;3.35;;
26574;SDS011;67165;50.256;10.978;2024-02-14T12:38:12;6.43;;;2.97;;
26574;SDS011;67165;50.256;10.978;2024-02-14T12:40:40;5.68;;;2.70;;
26574;SDS011;67165;50.256;10.978;2024-02-14T12:43:15;9.57;;;3.20;;
26574;SDS011;67165;50.256;10.978;2024-02-14T12:45:41;8.10;;;2.78;;
26574;SDS011;67165;50.256;10.978;2024-02-14T12:48:08;7.32;;;3.15;;
26574;SDS011;67165;50.256;10.978;2024-02-14T12:50:35;8.93;;;2.80;;
26574;SDS011;67165;50.256;10.978;2024-02-14T12:53:05;6.13;;;2.88;;
26574;SDS011;67165;50.256;10.978;2024-02-14T12:55:31;10.13;;;2.70;;
26574;SDS011;67165;50.256;10.978;2024-02-14T12:57:57;9.88;;;2.78;;
26574;SDS011;67165;50.256;10.978;2024-02-14T13:00:24;7.78;;;3.13;;
26574;SDS011;67165;50.256;10.978;2024-02-14T13:02:50;6.00;;;2.70;;
26574;SDS011;67165;50.256;10.978;2024-02-14T13:05:16;6.63;;;2.72;;
26574;SDS011;67165;50.256;10.978;2024-02-14T13:07:42;8.15;;;2.55;;
26574;SDS011;67165;50.256;10.978;2024-02-14T13:10:08;5.10;;;2.60;;
26574;SDS011;67165;50.256;10.978;2024-02-14T13:12:35;7.43;;;2.70;;
26574;SDS011;67165;50.256;10.978;2024-02-14T13:15:02;5.35;;;2.60;;
26574;SDS011;67165;50.256;10.978;2024-02-14T13:17:28;6.57;;;2.92;;
26574;SDS011;67165;50.256;10.978;2024-02-14T13:19:54;4.60;;;2.58;;
26574;SDS011;67165;50.256;10.978;2024-02-14T13:22:20;7.20;;;2.85;;
26574;SDS011;67165;50.256;10.978;2024-02-14T13:24:46;3.78;;;2.45;;
26574;SDS011;67165;50.256;10.978;2024-02-14T13:27:12;7.03;;;2.90;;
26574;SDS011;67165;50.256;10.978;2024-02-14T13:29:39;5.53;;;2.63;;
26574;SDS011;67165;50.256;10.978;2024-02-14T13:32:05;5.22;;;2.85;;
26574;SDS011;67165;50.256;10.978;2024-02-14T13:34:32;5.03;;;3.15;;
26574;SDS011;67165;50.256;10.978;2024-02-14T13:36:58;6.43;;;2.80;;
26574;SDS011;67165;50.256;10.978;2024-02-14T13:39:25;5.18;;;2.50;;
26574;SDS011;67165;50.256;10.978;2024-02-14T13:41:50;7.88;;;2.90;;
26574;SDS011;67165;50.256;10.978;2024-02-14T13:44:17;7.60;;;3.05;;
26574;SDS011;67165;50.256;10.978;2024-02-14T13:46:44;4.68;;;2.70;;
26574;SDS011;67165;50.256;10.978;2024-02-14T13:49:15;6.78;;;2.70;;
26574;SDS011;67165;50.256;10.978;2024-02-14T13:51:46;5.10;;;2.92;;
26574;SDS011;67165;50.256;10.978;2024-02-14T13:54:13;5.40;;;2.67;;
26574;SDS011;67165;50.256;10.978;2024-02-14T13:56:39;6.68;;;2.88;;
26574;SDS011;67165;50.256;10.978;2024-02-14T13:59:05;7.75;;;3.45;;
26574;SDS011;67165;50.256;10.978;2024-02-14T14:01:31;5.00;;;3.00;;
26574;SDS011;67165;50.256;10.978;2024-02-14T14:03:57;5.80;;;2.95;;
26574;SDS011;67165;50.256;10.978;2024-02-14T14:06:23;6.00;;;3.00;;
26574;SDS011;67165;50.256;10.978;2024-02-14T14:08:52;8.10;;;2.70;;
26574;SDS011;67165;50.256;10.978;2024-02-14T14:11:18;5.18;;;2.70;;
26574;SDS011;67165;50.256;10.978;2024-02-14T14:13:43;4.90;;;2.60;;
26574;SDS011;67165;50.256;10.978;2024-02-14T14:16:09;8.75;;;2.60;;
26574;SDS011;67165;50.256;10.978;2024-02-14T14:18:36;7.82;;;2.67;;
26574;SDS011;67165;50.256;10.978;2024-02-14T14:21:02;5.32;;;2.33;;